createdAt,value
2018-03-15T00:00:01.341Z,6.8
2018-03-15T00:01:03.917Z,6.9
2018-03-15T00:02:06.493Z,6.7
2018-03-15T00:03:09.227Z,6.6
2018-03-15T00:04:11.807Z,6.6
2018-03-15T00:05:14.330Z,6.5
2018-03-15T00:06:16.767Z,6.5
2018-03-15T00:07:19.259Z,7
2018-03-15T00:08:21.797Z,7
2018-03-15T00:09:24.280Z,6.6
2018-03-15T00:10:26.758Z,7.1
2018-03-15T00:11:29.267Z,7.3
2018-03-15T00:12:31.874Z,6.9
2018-03-15T00:13:34.417Z,6.6
2018-03-15T00:14:36.835Z,6.5
2018-03-15T00:15:39.374Z,6.5
2018-03-15T00:16:41.937Z,6.4
2018-03-15T00:17:44.391Z,6.4
2018-03-15T00:18:46.818Z,6.3
2018-03-15T00:19:49.252Z,6.4
2018-03-15T00:20:51.959Z,6
2018-03-15T00:21:54.438Z,6.5
2018-03-15T00:22:57.737Z,6.5
2018-03-15T00:24:00.201Z,6.5
2018-03-15T00:25:03.385Z,6.4
2018-03-15T00:26:06.040Z,6.6
2018-03-15T00:27:08.518Z,6.7
2018-03-15T00:28:11.577Z,6.5
2018-03-15T00:29:14.021Z,6.8
2018-03-15T00:30:16.526Z,6.5
2018-03-15T00:31:19.037Z,6.4
2018-03-15T00:32:21.570Z,6.4
2018-03-15T00:33:24.053Z,6.6
2018-03-15T00:34:26.495Z,6.7
2018-03-15T00:35:28.949Z,6.6
2018-03-15T00:36:31.460Z,6.7
2018-03-15T00:37:33.921Z,6.4
2018-03-15T00:38:36.427Z,6.6
2018-03-15T00:39:38.897Z,6.4
2018-03-15T00:40:41.438Z,6.2
2018-03-15T00:41:45.904Z,6.6
2018-03-15T00:42:48.614Z,6.8
2018-03-15T00:43:51.089Z,6.8
2018-03-15T00:44:54.475Z,7.1
2018-03-15T00:45:56.988Z,6.8
2018-03-15T00:47:00.710Z,6.4
2018-03-15T00:48:04.642Z,6.2
2018-03-15T00:49:07.204Z,6.3
2018-03-15T00:50:09.712Z,6.3
2018-03-15T00:51:12.201Z,6.6
2018-03-15T00:52:15.147Z,6.9
2018-03-15T00:53:17.675Z,7
2018-03-15T00:54:20.269Z,6.9
2018-03-15T00:55:22.750Z,6.4
2018-03-15T00:56:25.231Z,6.3
2018-03-15T00:57:27.882Z,6.8
2018-03-15T00:58:30.338Z,6.6
2018-03-15T00:59:32.899Z,6.6
2018-03-15T01:00:35.428Z,6.7
2018-03-15T01:01:39.300Z,6.6
2018-03-15T01:02:42.669Z,6.3
2018-03-15T01:03:45.101Z,6.2
2018-03-15T08:44:09.420Z,15.9
2018-03-15T08:45:12.442Z,15.9
2018-03-15T08:46:15.476Z,16.2
2018-03-15T08:47:18.454Z,16.4
2018-03-15T08:48:28.755Z,16.4
2018-03-15T08:49:31.438Z,16.4
2018-03-15T08:50:34.623Z,16.4
2018-03-15T08:51:37.590Z,16.2
2018-03-15T08:52:40.531Z,16.3
2018-03-15T08:53:43.627Z,16.4
2018-03-15T08:54:46.628Z,16.3
2018-03-15T08:55:49.724Z,16.3
2018-03-15T08:56:52.596Z,16.4
2018-03-15T08:57:55.640Z,16.4
2018-03-15T08:58:58.556Z,16.5
2018-03-15T09:00:01.682Z,16.6
2018-03-15T09:01:05.517Z,16.5
2018-03-15T09:02:08.463Z,16.5
2018-03-15T09:03:11.944Z,16.6
2018-03-15T09:04:14.959Z,16.5
2018-03-15T09:05:17.931Z,16.5
2018-03-15T09:06:20.940Z,16.5
2018-03-15T09:07:24.061Z,16.6
2018-03-15T09:08:26.762Z,16.7
2018-03-15T09:09:29.763Z,16.9
2018-03-15T09:10:32.809Z,16.8
2018-03-15T09:11:35.881Z,16.8
2018-03-15T09:12:39.239Z,16.8
2018-03-15T09:13:42.622Z,16.8
2018-03-15T09:14:46.032Z,16.8
2018-03-15T09:15:49.329Z,16.8
2018-03-15T09:16:52.115Z,16.8
2018-03-15T09:17:55.199Z,17
2018-03-15T09:18:58.091Z,17.1
2018-03-15T09:20:01.026Z,17
2018-03-15T09:21:04.239Z,17
2018-03-15T09:22:07.145Z,17
2018-03-15T09:23:10.974Z,17
2018-03-15T09:25:22.677Z,17.1
2018-03-15T09:26:26.839Z,17.2
2018-03-15T09:27:33.528Z,17.1
2018-03-15T09:28:37.051Z,17.2
2018-03-15T09:29:40.084Z,17.1
2018-03-15T09:30:43.222Z,17
2018-03-15T09:31:46.577Z,17.1
2018-03-15T09:32:49.563Z,17.2
2018-03-15T09:33:53.295Z,17.2
2018-03-15T09:34:56.282Z,17.1
2018-03-15T09:35:59.422Z,17.3
2018-03-15T09:37:02.735Z,17.3
2018-03-15T09:38:05.634Z,17.4
2018-03-15T09:39:08.692Z,17.4
2018-03-15T09:40:12.224Z,17.4
2018-03-15T09:41:15.707Z,17.4
2018-03-15T09:42:18.448Z,17.5
2018-03-15T09:43:21.472Z,17.5
2018-03-15T09:44:25.667Z,17.4
2018-03-15T09:45:28.612Z,17.5
2018-03-15T09:46:32.010Z,17.5
2018-03-15T09:47:35.372Z,17.5
2018-03-15T09:48:38.912Z,17.4
2018-03-15T09:49:41.771Z,17.3
2018-03-15T09:50:44.824Z,17.4
2018-03-15T09:51:48.571Z,17.5
2018-03-15T09:52:55.952Z,17.5
2018-03-15T09:53:59.559Z,17.6
2018-03-15T09:55:02.500Z,17.6
2018-03-15T09:56:05.683Z,17.5
2018-03-15T09:57:08.845Z,17.5
2018-03-15T09:58:11.614Z,17.6
2018-03-15T09:59:14.837Z,17.6
2018-03-15T10:00:17.586Z,17.6
2018-03-15T10:01:20.619Z,17.7
2018-03-15T10:02:24.774Z,17.7
2018-03-15T10:03:27.868Z,17.5
2018-03-15T10:04:30.735Z,17.4
2018-03-15T10:05:34.064Z,17.6
2018-03-15T10:06:37.052Z,17.6
2018-03-15T10:07:40.163Z,17.5
2018-03-15T10:08:43.605Z,17.6
2018-03-15T10:09:47.032Z,17.7
2018-03-15T10:10:50.107Z,17.6
2018-03-15T10:11:53.031Z,17.6
2018-03-15T10:12:55.813Z,17.7
2018-03-15T10:13:58.795Z,17.7
2018-03-15T10:15:01.751Z,17.7
2018-03-15T10:16:04.722Z,17.7
2018-03-15T10:17:07.678Z,17.7
2018-03-15T10:18:11.171Z,17.6
2018-03-15T10:19:15.122Z,17.6
2018-03-15T10:20:18.319Z,17.6
2018-03-15T10:21:21.509Z,17.5
2018-03-15T10:22:24.377Z,17.8
2018-03-15T10:23:27.112Z,17.8
2018-03-15T10:24:31.182Z,17.8
2018-03-15T10:25:36.002Z,17.8
2018-03-15T10:26:39.004Z,17.8
2018-03-15T10:27:42.431Z,17.8
2018-03-15T10:28:46.196Z,17.7
2018-03-15T10:29:49.665Z,17.8
2018-03-15T10:30:52.728Z,17.9
2018-03-15T10:31:55.807Z,17.8
2018-03-15T10:32:58.709Z,17.9
2018-03-15T10:34:01.743Z,17.9
2018-03-15T10:35:04.762Z,18
2018-03-15T10:36:07.537Z,18
2018-03-15T10:37:10.766Z,18
2018-03-15T10:38:14.313Z,18.1
2018-03-15T10:39:17.500Z,18
2018-03-15T10:40:20.806Z,17.9
2018-03-15T10:41:23.749Z,17.9
2018-03-15T10:42:26.415Z,17.9
2018-03-15T10:43:29.424Z,18
2018-03-15T10:44:32.358Z,17.9
2018-03-15T10:45:36.058Z,17.8
2018-03-15T10:46:43.434Z,17.8
2018-03-15T10:47:47.263Z,17.9
2018-03-15T10:48:50.094Z,17.9
2018-03-15T10:49:52.999Z,17.8
2018-03-15T10:50:56.599Z,17.8
2018-03-15T10:51:59.731Z,17.9
2018-03-15T10:53:03.335Z,18
2018-03-15T10:54:06.779Z,18
2018-03-15T10:55:09.362Z,18
2018-03-15T10:56:12.329Z,18
2018-03-15T10:57:15.618Z,17.9
2018-03-15T10:58:23.081Z,17.8
2018-03-15T10:59:26.863Z,18
2018-03-15T11:00:29.692Z,17.9
2018-03-15T11:01:32.519Z,17.7
2018-03-15T11:02:36.607Z,17.8
2018-03-15T11:03:41.146Z,17.7
2018-03-15T11:04:45.438Z,17.6
2018-03-15T11:05:48.737Z,17.8
2018-03-15T11:06:51.989Z,17.6
2018-03-15T11:07:55.199Z,17.6
2018-03-15T11:08:57.939Z,17.7
2018-03-15T11:10:01.179Z,17.5
2018-03-15T11:11:04.076Z,17.6
2018-03-15T11:12:07.161Z,17.8
2018-03-15T11:13:09.919Z,17.7
2018-03-15T11:14:13.126Z,17.8
2018-03-15T11:15:16.629Z,17.8
2018-03-15T11:16:19.495Z,17.7
2018-03-15T11:17:22.346Z,17.7
2018-03-15T11:18:25.733Z,17.5
2018-03-15T11:19:29.949Z,17.5
2018-03-15T11:20:34.224Z,17.6
2018-03-15T11:21:37.048Z,17.8
2018-03-15T11:22:40.466Z,17.8
2018-03-15T11:23:43.366Z,17.7
2018-03-15T11:24:46.411Z,17.6
2018-03-15T11:25:49.911Z,17.7
2018-03-15T11:26:53.541Z,17.8
2018-03-15T11:27:56.892Z,17.7
2018-03-15T11:29:00.091Z,17.7
2018-03-15T11:30:03.434Z,17.8
2018-03-15T11:31:06.920Z,17.8
2018-03-15T11:32:10.274Z,17.7
2018-03-15T11:34:21.768Z,17.6
2018-03-15T11:35:34.853Z,17.6
2018-03-15T11:36:48.342Z,17.7
2018-03-15T11:37:52.736Z,17.7
2018-03-15T11:38:56.527Z,17.6
2018-03-15T11:40:08.415Z,17.6
2018-03-15T11:41:13.174Z,17.4
2018-03-15T11:42:20.167Z,17.7
2018-03-15T11:43:23.902Z,17.6
2018-03-15T11:44:36.542Z,17.5
2018-03-15T11:45:40.959Z,17.6
2018-03-15T11:46:46.022Z,17.8
2018-03-15T11:47:49.866Z,17.9
2018-03-15T11:48:52.906Z,17.8
2018-03-15T11:49:57.651Z,17.7
2018-03-15T11:51:02.383Z,17.6
2018-03-15T11:52:05.815Z,17.7
2018-03-15T11:53:09.115Z,17.7
2018-03-15T11:54:12.458Z,17.8
2018-03-15T11:55:17.559Z,17.8
2018-03-15T11:57:34.248Z,17.9
2018-03-15T11:58:37.316Z,18
2018-03-15T11:59:41.072Z,17.8
2018-03-15T12:00:45.170Z,17.7
2018-03-15T12:01:49.369Z,17.7
2018-03-15T12:03:02.928Z,17.6
2018-03-15T12:04:06.638Z,17.6
2018-03-15T12:05:10.450Z,17.7
2018-03-15T12:06:14.178Z,17.8
2018-03-15T12:07:18.230Z,17.8
2018-03-15T12:08:21.903Z,17.8
2018-03-15T12:09:25.476Z,17.6
2018-03-15T12:10:33.668Z,17.6
2018-03-15T12:11:37.806Z,17.5
2018-03-15T12:12:43.275Z,17.4
2018-03-15T12:13:48.053Z,17.6
2018-03-15T12:15:01.019Z,17.6
2018-03-15T12:16:06.756Z,17.5
2018-03-15T12:18:18.740Z,17.5
2018-03-15T12:19:22.858Z,17.6
2018-03-15T12:20:26.524Z,17.4
2018-03-15T12:21:30.996Z,17.6
2018-03-15T12:22:35.761Z,17.5
2018-03-15T12:23:39.537Z,17.6
2018-03-15T12:25:50.870Z,17.5
2018-03-15T12:26:55.369Z,17.4
2018-03-15T12:28:10.686Z,17.5
2018-03-15T12:29:15.438Z,17.5
2018-03-15T12:30:26.347Z,17.4
2018-03-15T12:31:30.782Z,17.4
2018-03-15T12:32:34.544Z,17.4
2018-03-15T12:33:38.047Z,17.2
2018-03-15T12:34:40.976Z,17.3
2018-03-15T12:35:43.885Z,17.2
2018-03-15T12:36:47.095Z,17.4
2018-03-15T12:37:49.698Z,17.5
2018-03-15T12:38:52.589Z,17.4
2018-03-15T12:39:55.346Z,17.5
2018-03-15T12:40:58.237Z,17.6
2018-03-15T12:42:01.157Z,17.5
2018-03-15T12:43:03.846Z,17.5
2018-03-15T12:44:07.212Z,17.5
2018-03-15T12:45:10.044Z,17.6
2018-03-15T12:46:13.035Z,17.5
2018-03-15T12:47:21.822Z,17.6
2018-03-15T12:48:24.627Z,17.7
2018-03-15T12:49:27.493Z,17.7
2018-03-15T12:50:30.124Z,17.6
2018-03-15T12:51:32.859Z,17.7
2018-03-15T12:52:35.671Z,17.6
2018-03-15T12:53:38.434Z,17.7
2018-03-15T12:54:41.015Z,17.6
2018-03-15T12:55:43.812Z,17.6
2018-03-15T12:56:46.783Z,17.8
2018-03-15T12:57:49.725Z,17.6
2018-03-15T12:58:53.410Z,17.4
2018-03-15T12:59:56.320Z,17.5
2018-03-15T13:00:58.991Z,17.5
2018-03-15T13:02:02.282Z,17.5
2018-03-15T13:03:05.220Z,17.3
2018-03-15T13:04:07.982Z,17.5
2018-03-15T13:05:11.201Z,17.5
2018-03-15T13:06:13.884Z,17.6
2018-03-15T13:07:16.745Z,17.5
2018-03-15T13:08:19.829Z,17.5
2018-03-15T13:09:22.695Z,17.5
2018-03-15T13:10:25.538Z,17.5
2018-03-15T13:11:28.683Z,17.2
2018-03-15T13:12:31.462Z,17.6
2018-03-15T13:13:34.074Z,17.7
2018-03-15T13:14:36.943Z,17.6
2018-03-15T13:15:39.558Z,17.7
2018-03-15T13:16:42.191Z,17.6
2018-03-15T13:17:44.937Z,17.6
2018-03-15T13:18:47.681Z,17.6
2018-03-15T13:19:50.960Z,17.7
2018-03-15T13:20:54.213Z,17.7
2018-03-15T13:21:57.110Z,17.6
2018-03-15T13:23:01.100Z,17.6
2018-03-15T13:24:03.664Z,17.5
2018-03-15T13:25:06.525Z,17.5
2018-03-15T13:26:09.386Z,17.3
2018-03-15T13:27:13.139Z,17.6
2018-03-15T13:28:16.429Z,17.3
2018-03-15T13:29:19.819Z,17.6
2018-03-15T13:30:23.014Z,17.5
2018-03-15T13:31:26.617Z,17.5
2018-03-15T13:32:32.803Z,17.2
2018-03-15T13:33:37.403Z,17.4
2018-03-15T13:34:40.586Z,17.3
2018-03-15T13:35:43.924Z,17.4
2018-03-15T13:36:49.714Z,17.4
2018-03-15T13:37:53.418Z,17.4
2018-03-15T13:38:57.355Z,17.4
2018-03-15T13:40:00.298Z,17.4
2018-03-15T13:41:03.261Z,17.4
2018-03-15T13:42:06.451Z,17.3
2018-03-15T13:43:09.636Z,17.4
2018-03-15T13:44:12.291Z,17.2
2018-03-15T13:45:15.227Z,17.4
2018-03-15T13:46:18.039Z,17.5
2018-03-15T13:47:20.886Z,17.4
2018-03-15T13:48:24.125Z,17.4
2018-03-15T13:49:26.837Z,17.4
2018-03-15T13:50:30.255Z,17.5
2018-03-15T13:51:33.254Z,17.4
2018-03-15T13:52:35.944Z,17.4
2018-03-15T13:53:38.927Z,17.5
2018-03-15T13:54:41.758Z,17.4
2018-03-15T13:55:45.468Z,17.4
2018-03-15T13:56:48.268Z,17.4
2018-03-15T13:57:54.814Z,17.4
2018-03-15T13:58:57.774Z,17.3
2018-03-15T14:00:00.970Z,17.3
2018-03-15T14:01:04.821Z,17.3
2018-03-15T14:02:07.807Z,17.3
2018-03-15T14:03:10.836Z,17.4
2018-03-15T14:04:13.684Z,17.4
2018-03-15T14:05:16.700Z,17.3
2018-03-15T14:06:25.589Z,17.2
2018-03-15T14:07:30.025Z,17.3
2018-03-15T14:08:32.990Z,17.4
2018-03-15T14:09:35.704Z,17.3
2018-03-15T14:10:38.632Z,17.2
2018-03-15T14:11:42.860Z,17.2
2018-03-15T14:12:45.667Z,17
2018-03-15T14:13:48.721Z,17.3
2018-03-15T14:14:51.621Z,17.3
2018-03-15T14:15:54.592Z,17.1
2018-03-15T14:16:57.323Z,17.2
2018-03-15T14:18:00.133Z,17.2
2018-03-15T14:19:03.083Z,17.2
2018-03-15T14:20:06.483Z,17.1
2018-03-15T14:21:09.532Z,17
2018-03-15T14:22:12.293Z,17.2
2018-03-15T14:23:17.896Z,17.2
2018-03-15T14:24:20.929Z,17.3
2018-03-15T14:25:23.881Z,17.2
2018-03-15T14:26:27.175Z,17.3
2018-03-15T14:27:29.741Z,17.3
2018-03-15T14:28:32.375Z,17.3
2018-03-15T14:29:35.089Z,17.2
2018-03-15T14:30:38.114Z,17.1
2018-03-15T14:31:40.990Z,17.2
2018-03-15T14:32:43.638Z,17.3
2018-03-15T14:33:46.837Z,17.2
2018-03-15T14:34:49.653Z,17.1
2018-03-15T14:35:52.767Z,17
2018-03-15T14:36:55.499Z,17.2
2018-03-15T14:37:58.304Z,17.3
2018-03-15T14:39:00.985Z,17.2
2018-03-15T14:40:03.908Z,17.1
2018-03-15T14:41:06.806Z,17.1
2018-03-15T14:42:09.638Z,17.1
2018-03-15T14:43:13.196Z,17.2
2018-03-15T14:44:16.073Z,17.3
2018-03-15T14:45:19.997Z,17.1
2018-03-15T14:46:23.249Z,17.3
2018-03-15T14:47:26.136Z,17.3
2018-03-15T14:48:29.400Z,17.3
2018-03-15T14:49:32.711Z,17.2
2018-03-15T14:50:35.459Z,17.2
2018-03-15T14:51:38.154Z,17.1
2018-03-15T14:52:40.936Z,17.2
2018-03-15T14:53:44.065Z,17.2
2018-03-15T14:54:47.130Z,17
2018-03-15T14:55:49.992Z,17.1
2018-03-15T14:56:52.896Z,17.2
2018-03-15T14:57:55.867Z,17.1
2018-03-15T14:58:58.866Z,17.2
2018-03-15T15:00:01.768Z,17.2
2018-03-15T15:01:04.876Z,17.3
2018-03-15T15:02:08.019Z,17.2
2018-03-15T15:03:10.673Z,17.3
2018-03-15T15:04:13.463Z,17.3
2018-03-15T15:05:16.221Z,17.2
2018-03-15T15:06:19.110Z,17.3
2018-03-15T15:07:22.024Z,17.3
2018-03-15T15:08:25.253Z,17.1
2018-03-15T15:09:27.996Z,17.2
2018-03-15T15:10:30.795Z,17.2
2018-03-15T15:11:33.629Z,17.2
2018-03-15T15:12:36.431Z,17.2
2018-03-15T15:13:39.616Z,17.4
2018-03-15T15:14:42.896Z,17.1
2018-03-15T15:16:54.083Z,17.4
2018-03-15T15:17:56.814Z,17.4
2018-03-15T15:18:59.799Z,17.3
2018-03-15T15:20:03.466Z,17.4
2018-03-15T15:21:06.329Z,17.4
2018-03-15T15:22:14.535Z,17.5
2018-03-15T15:23:17.922Z,17.3
2018-03-15T15:24:21.051Z,17.4
2018-03-15T15:25:23.987Z,17.4
2018-03-15T15:26:26.865Z,17.3
2018-03-15T15:27:29.735Z,17.5
2018-03-15T15:28:32.663Z,17.4
2018-03-15T15:29:35.879Z,17.4
2018-03-15T15:30:38.710Z,17.3
2018-03-15T15:31:41.470Z,17.4
2018-03-15T15:32:44.242Z,17.4
2018-03-15T15:33:46.811Z,17.3
2018-03-15T15:34:49.589Z,17.4
2018-03-15T15:35:52.448Z,17.5
2018-03-15T15:36:55.785Z,17.4
2018-03-15T15:37:59.218Z,17.4
2018-03-15T15:39:02.644Z,17.4
2018-03-15T15:40:05.206Z,17.4
2018-03-15T15:41:07.906Z,17.3
2018-03-15T15:42:10.550Z,17.3
2018-03-15T15:43:13.519Z,17.4
2018-03-15T15:44:17.187Z,17.4
2018-03-15T15:45:20.048Z,17.3
2018-03-15T15:46:23.126Z,17.2
2018-03-15T15:47:27.976Z,17.3
2018-03-15T15:48:35.336Z,17.2
2018-03-15T15:49:39.877Z,17.1
2018-03-15T15:50:42.698Z,17.1
2018-03-15T15:51:45.280Z,17.1
2018-03-15T15:52:48.062Z,17.3
2018-03-15T15:53:50.747Z,17.2
2018-03-15T15:54:53.437Z,17.3
2018-03-15T15:55:56.282Z,17.3
2018-03-15T15:56:59.156Z,17.1
2018-03-15T15:58:02.044Z,17.1
2018-03-15T15:59:06.354Z,17
2018-03-15T16:00:09.529Z,17
2018-03-15T16:01:12.302Z,16.8
2018-03-15T16:02:15.303Z,17
2018-03-15T16:03:18.241Z,17
2018-03-15T16:04:21.057Z,17
2018-03-15T16:05:24.417Z,17
2018-03-15T16:06:27.347Z,17
2018-03-15T16:07:30.047Z,17
2018-03-15T16:08:33.026Z,17
2018-03-15T16:09:36.934Z,16.9
2018-03-15T16:10:39.777Z,16.8
2018-03-15T16:11:42.948Z,16.7
2018-03-15T16:12:46.366Z,16.8
2018-03-15T16:13:49.306Z,16.8
2018-03-15T16:14:52.193Z,16.9
2018-03-15T16:15:55.070Z,17
2018-03-15T16:16:58.161Z,16.8
2018-03-15T16:18:02.455Z,16.9
2018-03-15T16:19:05.279Z,16.8
2018-03-15T16:20:08.551Z,16.8
2018-03-15T16:21:11.295Z,16.8
2018-03-15T16:22:14.070Z,16.8
2018-03-15T16:23:16.811Z,16.7
2018-03-15T16:24:19.859Z,16.7
2018-03-15T16:25:22.904Z,16.7
2018-03-15T16:26:25.945Z,16.8
2018-03-15T16:27:32.133Z,16.8
2018-03-15T16:28:35.050Z,16.7
2018-03-15T16:29:37.722Z,16.7
2018-03-15T16:30:40.757Z,16.7
2018-03-15T16:31:43.379Z,16.7
2018-03-15T16:32:46.455Z,16.7
2018-03-15T16:33:49.573Z,16.7
2018-03-15T16:34:52.573Z,16.7
2018-03-15T16:35:55.327Z,16.8
2018-03-15T16:36:58.870Z,16.7
2018-03-15T16:38:02.044Z,16.6
2018-03-15T16:39:04.843Z,16.7
2018-03-15T16:40:07.700Z,16.6
2018-03-15T16:41:10.599Z,16.5
2018-03-15T16:42:13.186Z,16.5
2018-03-15T16:43:16.224Z,16.5
2018-03-15T16:44:19.223Z,16.7
2018-03-15T16:45:28.681Z,16.8
2018-03-15T16:46:32.281Z,16.8
2018-03-15T16:47:35.416Z,16.7
2018-03-15T16:48:38.224Z,16.7
2018-03-15T16:49:40.815Z,16.6
2018-03-15T16:50:43.616Z,16.5
2018-03-15T16:51:47.726Z,16.5
2018-03-15T16:52:50.727Z,16.4
2018-03-15T16:53:53.901Z,16.5
2018-03-15T16:54:56.856Z,16.5
2018-03-15T16:55:59.822Z,16.4
2018-03-15T16:57:04.296Z,16.5
2018-03-15T16:58:07.594Z,16.5
2018-03-15T16:59:10.636Z,16.5
2018-03-15T17:00:13.531Z,16.3
2018-03-15T17:01:16.496Z,16.4
2018-03-15T17:02:19.575Z,16.3
2018-03-15T17:03:22.463Z,16.3
2018-03-15T17:04:25.002Z,16.2
2018-03-15T17:05:27.665Z,16.1
2018-03-15T17:06:31.880Z,16.1
2018-03-15T17:07:34.870Z,16.2
2018-03-15T17:08:37.527Z,16.2
2018-03-15T17:09:40.159Z,16.3
2018-03-15T17:10:42.819Z,16.2
2018-03-15T17:11:45.641Z,16.2
2018-03-15T17:12:48.508Z,16.2
2018-03-15T17:13:51.157Z,16.1
2018-03-15T17:14:53.848Z,16.2
2018-03-15T17:15:56.624Z,16
2018-03-15T17:16:59.581Z,16.2
2018-03-15T17:18:02.969Z,16.2
2018-03-15T17:19:10.158Z,16.1
2018-03-15T17:20:13.000Z,16.1
2018-03-15T17:21:19.721Z,16.2
2018-03-15T17:22:26.019Z,16.2
2018-03-15T17:23:28.701Z,16.1
2018-03-15T17:24:31.426Z,16.1
2018-03-15T17:25:35.024Z,16.2
2018-03-15T17:26:37.518Z,16.1
2018-03-15T17:27:40.340Z,16
2018-03-15T17:28:43.160Z,16
2018-03-15T17:29:45.812Z,16
2018-03-15T17:30:48.709Z,16.1
2018-03-15T17:31:51.463Z,16
2018-03-15T17:32:54.174Z,15.9
2018-03-15T17:33:56.947Z,15.9
2018-03-15T17:35:00.445Z,15.9
2018-03-15T17:36:03.887Z,15.9
2018-03-15T17:37:06.572Z,15.9
2018-03-15T17:38:09.554Z,15.8
2018-03-15T17:39:12.325Z,15.9
2018-03-15T17:40:15.017Z,15.9
2018-03-15T17:41:17.651Z,15.9
2018-03-15T17:42:20.452Z,16
2018-03-15T17:43:23.252Z,15.9
2018-03-15T17:44:26.097Z,15.9
2018-03-15T17:45:28.811Z,15.7
2018-03-15T17:46:31.960Z,15.8
2018-03-15T17:47:34.834Z,15.8
2018-03-15T17:48:38.654Z,15.8
2018-03-15T17:49:41.206Z,15.9
2018-03-15T17:50:44.891Z,15.8
2018-03-15T17:51:47.618Z,15.9
2018-03-15T17:52:50.305Z,15.9
2018-03-15T17:53:53.033Z,15.9
2018-03-15T17:54:55.923Z,15.8
2018-03-15T17:55:58.652Z,15.8
2018-03-15T17:57:01.488Z,15.8
2018-03-15T17:58:04.716Z,15.9
2018-03-15T17:59:12.509Z,16
2018-03-15T18:00:15.229Z,15.8
2018-03-15T18:01:18.111Z,15.8
2018-03-15T18:02:20.871Z,15.9
2018-03-15T18:03:23.661Z,15.9
2018-03-15T18:04:26.518Z,15.9
2018-03-15T18:05:29.264Z,15.9
2018-03-15T18:06:31.859Z,15.8
2018-03-15T18:07:34.527Z,15.8
2018-03-15T18:08:42.551Z,15.5
2018-03-15T18:09:45.192Z,16
2018-03-15T18:10:47.772Z,16.1
2018-03-15T18:11:50.535Z,16.3
2018-03-15T18:12:53.084Z,16.5
2018-03-15T18:13:55.803Z,16.6
2018-03-15T18:14:58.578Z,16.6
2018-03-15T18:16:01.433Z,16.6
2018-03-15T18:17:04.276Z,16.8
2018-03-15T18:18:06.779Z,16.7
2018-03-15T18:19:09.519Z,16.9
2018-03-15T18:20:12.432Z,16.9
2018-03-15T18:21:14.978Z,17
2018-03-15T18:22:17.640Z,17.2
2018-03-15T18:23:20.398Z,17.3
2018-03-15T18:24:22.938Z,17.3
2018-03-15T18:25:25.486Z,17.2
2018-03-15T18:26:28.325Z,17.4
2018-03-15T18:27:31.049Z,17.4
2018-03-15T18:28:34.101Z,17.2
2018-03-15T18:29:36.738Z,17.4
2018-03-15T18:30:39.663Z,17.6
2018-03-15T18:31:42.900Z,17.8
2018-03-15T18:32:45.790Z,17.8
2018-03-15T18:33:48.440Z,17.8
2018-03-15T18:34:51.161Z,17.7
2018-03-15T18:35:53.727Z,17.6
2018-03-15T18:36:56.471Z,17.8
2018-03-15T18:38:00.243Z,17.8
2018-03-15T18:39:02.827Z,17.8
2018-03-15T18:40:05.431Z,18
2018-03-15T18:41:08.102Z,18.2
2018-03-15T18:42:11.534Z,18.2
2018-03-15T18:43:14.982Z,18.1
2018-03-15T18:44:17.559Z,18.1
2018-03-15T18:45:20.099Z,18.3
2018-03-15T18:46:22.664Z,18.2
2018-03-15T18:47:25.264Z,18.2
2018-03-15T18:48:27.800Z,18.2
2018-03-15T18:49:30.511Z,18
2018-03-15T18:50:33.080Z,18.2
2018-03-15T18:51:35.645Z,18.2
2018-03-15T18:52:38.384Z,18
2018-03-15T18:53:41.151Z,17.9
2018-03-15T18:54:43.830Z,17.9
2018-03-15T18:55:46.879Z,17.7
2018-03-15T18:56:49.557Z,17.7
2018-03-15T18:57:52.155Z,17.6
2018-03-15T18:58:54.681Z,17.5
2018-03-15T18:59:57.414Z,17.4
2018-03-15T19:01:00.159Z,17.4
2018-03-15T19:02:02.864Z,17.3
2018-03-15T19:03:05.494Z,17.2
2018-03-15T19:04:08.100Z,17.1
2018-03-15T19:05:10.876Z,17.1
2018-03-15T19:06:14.243Z,17.1
2018-03-15T19:07:17.982Z,17
2018-03-15T19:08:20.675Z,16.9
2018-03-15T19:09:23.197Z,16.8
2018-03-15T19:10:25.715Z,16.6
2018-03-15T19:11:28.443Z,16.7
2018-03-15T19:12:31.840Z,16.4
2018-03-15T19:13:35.204Z,16.6
2018-03-15T19:14:37.835Z,16.5
2018-03-15T19:15:40.409Z,16.3
2018-03-15T19:16:42.986Z,16.3
2018-03-15T19:17:45.486Z,16.2
2018-03-15T19:18:47.995Z,16.2
2018-03-15T19:19:50.497Z,16.2
2018-03-15T19:20:53.033Z,16.2
2018-03-15T19:21:55.476Z,16.1
2018-03-15T19:22:58.046Z,16.1
2018-03-15T19:24:00.617Z,16.3
2018-03-15T19:25:03.174Z,16.3
2018-03-15T19:26:05.753Z,16.4
2018-03-15T19:27:08.484Z,16.3
2018-03-15T19:28:11.102Z,16.3
2018-03-15T19:29:14.589Z,16.3
2018-03-15T19:30:17.107Z,16.2
2018-03-15T19:31:20.967Z,16.2
2018-03-15T19:32:24.307Z,16.1
2018-03-15T19:33:26.880Z,16
2018-03-15T19:34:29.651Z,16.1
2018-03-15T19:35:32.206Z,16
2018-03-15T19:36:34.732Z,16.1
2018-03-15T19:37:37.295Z,16.1
2018-03-15T19:38:40.219Z,16.1
2018-03-15T19:39:43.135Z,16.1
2018-03-15T19:40:45.708Z,16.1
2018-03-15T19:41:48.171Z,16
2018-03-15T19:42:50.652Z,15.9
2018-03-15T19:43:53.188Z,16
2018-03-15T19:44:55.750Z,16
2018-03-15T19:45:58.277Z,15.9
2018-03-15T19:47:00.923Z,15.9
2018-03-15T19:48:03.532Z,15.9
2018-03-15T19:49:07.329Z,15.9
2018-03-15T19:50:10.079Z,16
2018-03-15T19:51:12.921Z,15.9
2018-03-15T19:52:15.390Z,15.8
2018-03-15T19:53:17.848Z,15.8
2018-03-15T19:54:20.388Z,15.8
2018-03-15T19:55:22.912Z,15.7
2018-03-15T19:56:25.580Z,15.8
2018-03-15T19:57:28.130Z,15.8
2018-03-15T19:58:30.807Z,15.7
2018-03-15T19:59:33.482Z,15.6
2018-03-15T20:00:36.140Z,15.8
2018-03-15T20:01:38.741Z,15.8
2018-03-15T20:02:41.412Z,15.9
2018-03-15T20:03:43.989Z,15.9
2018-03-15T20:04:46.603Z,15.8
2018-03-15T20:05:49.227Z,15.9
2018-03-15T20:06:51.892Z,15.9
2018-03-15T20:07:54.419Z,16
2018-03-15T20:08:56.976Z,16.1
2018-03-15T20:09:59.624Z,16.3
2018-03-15T20:11:02.467Z,16.5
2018-03-15T20:12:05.546Z,16.6
2018-03-15T20:13:08.182Z,16.6
2018-03-15T20:14:10.890Z,16.6
2018-03-15T20:15:13.354Z,16.7
2018-03-15T20:16:15.852Z,16.8
2018-03-15T20:17:18.402Z,16.9
2018-03-15T20:18:21.018Z,16.9
2018-03-15T20:19:23.583Z,17.1
2018-03-15T20:20:26.152Z,17.2
2018-03-15T20:21:28.737Z,17.4
2018-03-15T20:22:31.513Z,17.2
2018-03-15T20:23:34.182Z,17.3
2018-03-15T20:24:36.805Z,17.1
2018-03-15T20:25:39.372Z,17.4
2018-03-15T20:26:42.040Z,17.2
2018-03-15T20:27:44.554Z,17.4
2018-03-15T20:28:47.041Z,17.3
2018-03-15T20:29:49.562Z,17.3
2018-03-15T20:30:52.193Z,17.4
2018-03-15T20:31:54.725Z,17.4
2018-03-15T20:32:57.403Z,17.6
2018-03-15T20:34:00.020Z,17.5
2018-03-15T20:35:03.775Z,17.7
2018-03-15T20:36:06.537Z,17.4
2018-03-15T20:37:09.191Z,17.5
2018-03-15T20:38:11.718Z,17.7
2018-03-15T20:39:14.200Z,17.5
2018-03-15T20:40:16.668Z,17.4
2018-03-15T20:41:19.287Z,17.5
2018-03-15T20:42:21.872Z,17.5
2018-03-15T20:43:24.899Z,17.5
2018-03-15T20:44:31.989Z,17.4
2018-03-15T20:45:34.576Z,17.3
2018-03-15T20:46:37.078Z,17.2
2018-03-15T20:47:39.675Z,17
2018-03-15T20:48:42.240Z,16.9
2018-03-15T20:49:44.844Z,16.9
2018-03-15T20:50:47.424Z,16.8
2018-03-15T20:51:50.068Z,16.7
2018-03-15T20:52:52.883Z,16.5
2018-03-15T20:53:55.394Z,16.3
2018-03-15T20:54:57.929Z,16.3
2018-03-15T20:56:00.618Z,16.1
2018-03-15T20:57:03.850Z,16
2018-03-15T20:58:06.503Z,16.2
2018-03-15T20:59:09.144Z,16
2018-03-15T21:00:11.721Z,16
2018-03-15T21:01:14.394Z,16
2018-03-15T21:02:16.934Z,15.9
2018-03-15T21:03:19.529Z,15.9
2018-03-15T21:04:22.034Z,15.9
2018-03-15T21:05:24.584Z,16
2018-03-15T21:06:27.214Z,16
2018-03-15T21:07:29.851Z,15.9
2018-03-15T21:08:32.491Z,16
2018-03-15T21:09:35.088Z,15.8
2018-03-15T21:10:37.692Z,15.9
2018-03-15T21:11:40.636Z,15.9
2018-03-15T21:12:43.551Z,15.8
2018-03-15T21:13:46.064Z,15.8
2018-03-15T21:14:48.494Z,15.8
2018-03-15T21:15:51.017Z,15.8
2018-03-15T21:16:53.507Z,15.6
2018-03-15T21:17:56.011Z,15.7
2018-03-15T21:18:58.471Z,15.7
2018-03-15T21:20:01.134Z,15.6
2018-03-15T21:21:03.708Z,15.6
2018-03-15T21:22:06.278Z,15.6
2018-03-15T21:23:09.278Z,15.4
2018-03-15T21:24:11.972Z,15.5
2018-03-15T21:25:14.495Z,15.4
2018-03-15T21:26:17.138Z,15.4
2018-03-15T21:27:19.800Z,15.3
2018-03-15T21:28:22.770Z,15.4
2018-03-15T21:29:25.350Z,15.4
2018-03-15T21:30:27.831Z,15.6
2018-03-15T21:31:30.422Z,15.3
2018-03-15T21:32:32.934Z,15.4
2018-03-15T21:33:35.626Z,15.4
2018-03-15T21:34:38.210Z,15.3
2018-03-15T21:35:40.768Z,15.4
2018-03-15T21:36:43.197Z,15.5
2018-03-15T21:37:45.655Z,15.4
2018-03-15T21:38:48.145Z,15.4
2018-03-15T21:39:50.674Z,15.3
2018-03-15T21:40:53.097Z,15.1
2018-03-15T21:41:55.530Z,15.1
2018-03-15T21:42:59.044Z,15.3
2018-03-15T21:44:01.824Z,15.4
2018-03-15T21:45:04.285Z,15.4
2018-03-15T21:46:06.806Z,15.3
2018-03-15T21:47:09.314Z,15.2
2018-03-15T21:48:12.103Z,15.1
2018-03-15T21:49:15.322Z,15
2018-03-15T21:50:17.842Z,14.8
2018-03-15T21:51:20.362Z,14.9
2018-03-15T21:52:23.550Z,15.2
2018-03-15T21:53:25.986Z,15.1